sensor_id;sensor_type;location;lat;lon;timestamp;temperature;humidity
16477;DHT22;8349;50.928;6.376;2023-01-10T04:01:20;4.90;99.90
16477;DHT22;8349;50.928;6.376;2023-01-10T04:03:50;4.90;99.90
16477;DHT22;8349;50.928;6.376;2023-01-10T04:06:16;4.90;99.90
16477;DHT22;8349;50.928;6.376;2023-01-10T04:08:44;4.90;99.90
16477;DHT22;8349;50.928;6.376;2023-01-10T04:11:11;4.90;99.90
16477;DHT22;8349;50.928;6.376;2023-01-10T04:13:37;4.90;99.90
16477;DHT22;8349;50.928;6.376;2023-01-10T04:16:06;4.90;99.90
16477;DHT22;8349;50.928;6.376;2023-01-10T04:18:34;4.90;99.90
16477;DHT22;8349;50.928;6.376;2023-01-10T04:21:01;4.90;99.90
16477;DHT22;8349;50.928;6.376;2023-01-10T04:23:28;4.90;99.90
16477;DHT22;8349;50.928;6.376;2023-01-10T04:25:55;4.90;99.90
16477;DHT22;8349;50.928;6.376;2023-01-10T04:28:21;4.90;99.90
16477;DHT22;8349;50.928;6.376;2023-01-10T04:30:48;4.90;99.90
16477;DHT22;8349;50.928;6.376;2023-01-10T04:33:14;4.90;99.90
16477;DHT22;8349;50.928;6.376;2023-01-10T04:35:46;4.90;99.90
16477;DHT22;8349;50.928;6.376;2023-01-10T04:38:13;4.90;99.90
16477;DHT22;8349;50.928;6.376;2023-01-10T04:40:40;4.80;99.90
16477;DHT22;8349;50.928;6.376;2023-01-10T04:43:07;4.80;99.90
16477;DHT22;8349;50.928;6.376;2023-01-10T04:45:34;4.80;99.90
16477;DHT22;8349;50.928;6.376;2023-01-10T04:48:00;4.70;99.90
16477;DHT22;8349;50.928;6.376;2023-01-10T04:50:27;4.70;99.90
16477;DHT22;8349;50.928;6.376;2023-01-10T04:52:55;4.60;99.90
16477;DHT22;8349;50.928;6.376;2023-01-10T04:55:22;4.60;99.90
16477;DHT22;8349;50.928;6.376;2023-01-10T04:57:49;4.60;99.90
16477;DHT22;8349;50.928;6.376;2023-01-10T05:03:45;4.50;99.90
16477;DHT22;8349;50.928;6.376;2023-01-10T05:06:12;4.50;99.90
16477;DHT22;8349;50.928;6.376;2023-01-10T05:08:40;4.50;99.90
16477;DHT22;8349;50.928;6.376;2023-01-10T05:11:07;4.50;99.90
16477;DHT22;8349;50.928;6.376;2023-01-10T05:13:34;4.40;99.90
16477;DHT22;8349;50.928;6.376;2023-01-10T05:16:01;4.40;99.90
16477;DHT22;8349;50.928;6.376;2023-01-10T05:18:28;4.30;99.90
16477;DHT22;8349;50.928;6.376;2023-01-10T05:20:58;4.30;99.90
16477;DHT22;8349;50.928;6.376;2023-01-10T05:23:25;4.30;99.90
16477;DHT22;8349;50.928;6.376;2023-01-10T05:25:53;4.30;99.90
16477;DHT22;8349;50.928;6.376;2023-01-10T05:28:20;4.20;99.90
16477;DHT22;8349;50.928;6.376;2023-01-10T05:30:47;4.20;99.90
16477;DHT22;8349;50.928;6.376;2023-01-10T05:33:14;4.30;99.90
16477;DHT22;8349;50.928;6.376;2023-01-10T05:35:40;4.30;99.90
16477;DHT22;8349;50.928;6.376;2023-01-10T05:38:07;4.30;99.90
16477;DHT22;8349;50.928;6.376;2023-01-10T05:40:34;4.40;99.90
16477;DHT22;8349;50.928;6.376;2023-01-10T05:43:02;4.30;99.90
16477;DHT22;8349;50.928;6.376;2023-01-10T05:45:29;4.30;99.90
16477;DHT22;8349;50.928;6.376;2023-01-10T05:47:56;4.40;99.90
16477;DHT22;8349;50.928;6.376;2023-01-10T05:50:22;4.40;99.90
16477;DHT22;8349;50.928;6.376;2023-01-10T05:52:49;4.40;99.90
16477;DHT22;8349;50.928;6.376;2023-01-10T05:55:16;4.40;99.90
16477;DHT22;8349;50.928;6.376;2023-01-10T05:57:43;4.30;99.90
16477;DHT22;8349;50.928;6.376;2023-01-10T06:00:12;4.30;99.90
16477;DHT22;8349;50.928;6.376;2023-01-10T06:02:39;4.40;99.90
16477;DHT22;8349;50.928;6.376;2023-01-10T06:05:06;4.40;99.90
16477;DHT22;8349;50.928;6.376;2023-01-10T06:07:32;4.40;99.90
16477;DHT22;8349;50.928;6.376;2023-01-10T06:09:59;4.30;99.90
16477;DHT22;8349;50.928;6.376;2023-01-10T06:12:26;4.40;99.90
16477;DHT22;8349;50.928;6.376;2023-01-10T06:14:53;4.30;99.90
16477;DHT22;8349;50.928;6.376;2023-01-10T06:17:21;4.30;99.90
16477;DHT22;8349;50.928;6.376;2023-01-10T06:19:48;4.30;99.90
16477;DHT22;8349;50.928;6.376;2023-01-10T06:22:16;4.20;99.90
16477;DHT22;8349;50.928;6.376;2023-01-10T06:24:43;4.20;99.90
16477;DHT22;8349;50.928;6.376;2023-01-10T06:27:10;4.20;99.90
16477;DHT22;8349;50.928;6.376;2023-01-10T06:29:37;4.10;99.90
16477;DHT22;8349;50.928;6.376;2023-01-10T06:32:03;4.10;99.90
16477;DHT22;8349;50.928;6.376;2023-01-10T06:34:32;4.00;99.90
16477;DHT22;8349;50.928;6.376;2023-01-10T06:36:58;4.00;99.90
16477;DHT22;8349;50.928;6.376;2023-01-10T06:39:25;4.00;99.90
16477;DHT22;8349;50.928;6.376;2023-01-10T06:41:52;4.00;99.90
16477;DHT22;8349;50.928;6.376;2023-01-10T06:44:19;3.90;99.90
16477;DHT22;8349;50.928;6.376;2023-01-10T06:46:45;3.80;99.90
16477;DHT22;8349;50.928;6.376;2023-01-10T06:49:12;3.90;99.90
16477;DHT22;8349;50.928;6.376;2023-01-10T06:51:40;3.80;99.90
16477;DHT22;8349;50.928;6.376;2023-01-10T06:54:07;3.80;99.90
16477;DHT22;8349;50.928;6.376;2023-01-10T06:56:34;3.80;99.90
16477;DHT22;8349;50.928;6.376;2023-01-10T06:59:01;3.80;99.90
16477;DHT22;8349;50.928;6.376;2023-01-10T07:01:27;3.80;99.90
16477;DHT22;8349;50.928;6.376;2023-01-10T07:03:54;3.80;99.90
16477;DHT22;8349;50.928;6.376;2023-01-10T07:06:21;3.80;99.90
16477;DHT22;8349;50.928;6.376;2023-01-10T07:08:49;3.80;99.90
16477;DHT22;8349;50.928;6.376;2023-01-10T07:11:16;3.80;99.90
16477;DHT22;8349;50.928;6.376;2023-01-10T07:13:43;3.80;99.90
16477;DHT22;8349;50.928;6.376;2023-01-10T07:16:10;3.90;99.90
16477;DHT22;8349;50.928;6.376;2023-01-10T07:18:37;3.90;99.90
16477;DHT22;8349;50.928;6.376;2023-01-10T07:21:05;3.90;99.90
16477;DHT22;8349;50.928;6.376;2023-01-10T07:23:32;4.00;99.90
16477;DHT22;8349;50.928;6.376;2023-01-10T07:26:02;4.00;99.90
16477;DHT22;8349;50.928;6.376;2023-01-10T07:28:29;4.00;99.90
16477;DHT22;8349;50.928;6.376;2023-01-10T07:30:57;3.90;99.90
16477;DHT22;8349;50.928;6.376;2023-01-10T07:33:24;4.00;99.90
16477;DHT22;8349;50.928;6.376;2023-01-10T07:35:51;3.90;99.90
16477;DHT22;8349;50.928;6.376;2023-01-10T07:38:17;4.00;99.90
16477;DHT22;8349;50.928;6.376;2023-01-10T07:40:44;4.00;99.90
16477;DHT22;8349;50.928;6.376;2023-01-10T07:43:12;4.00;99.90
16477;DHT22;8349;50.928;6.376;2023-01-10T07:45:39;4.00;99.90
16477;DHT22;8349;50.928;6.376;2023-01-10T07:48:06;4.00;99.90
16477;DHT22;8349;50.928;6.376;2023-01-10T07:50:33;4.00;99.90
16477;DHT22;8349;50.928;6.376;2023-01-10T07:53:01;4.00;99.90
16477;DHT22;8349;50.928;6.376;2023-01-10T07:55:28;4.00;99.90
16477;DHT22;8349;50.928;6.376;2023-01-10T07:57:55;4.00;99.90
16477;DHT22;8349;50.928;6.376;2023-01-10T08:00:23;4.00;99.90
16477;DHT22;8349;50.928;6.376;2023-01-10T08:02:51;4.00;99.90
16477;DHT22;8349;50.928;6.376;2023-01-10T08:05:18;4.00;99.90
16477;DHT22;8349;50.928;6.376;2023-01-10T08:07:45;4.10;99.90
16477;DHT22;8349;50.928;6.376;2023-01-10T08:10:12;4.10;99.90
16477;DHT22;8349;50.928;6.376;2023-01-10T08:12:38;4.20;99.90
16477;DHT22;8349;50.928;6.376;2023-01-10T08:15:06;4.20;99.90
16477;DHT22;8349;50.928;6.376;2023-01-10T08:17:34;4.30;99.90
16477;DHT22;8349;50.928;6.376;2023-01-10T08:20:01;4.30;99.90
16477;DHT22;8349;50.928;6.376;2023-01-10T08:22:28;4.30;99.90
16477;DHT22;8349;50.928;6.376;2023-01-10T08:24:55;4.40;99.90
16477;DHT22;8349;50.928;6.376;2023-01-10T08:27:22;4.40;99.90
16477;DHT22;8349;50.928;6.376;2023-01-10T08:29:48;4.50;99.90
16477;DHT22;8349;50.928;6.376;2023-01-10T08:32:15;4.50;99.90
16477;DHT22;8349;50.928;6.376;2023-01-10T08:34:44;4.60;99.90
16477;DHT22;8349;50.928;6.376;2023-01-10T08:37:11;4.60;99.90
16477;DHT22;8349;50.928;6.376;2023-01-10T08:39:38;4.70;99.90
16477;DHT22;8349;50.928;6.376;2023-01-10T08:42:05;4.70;99.90
16477;DHT22;8349;50.928;6.376;2023-01-10T08:44:32;4.70;99.90
16477;DHT22;8349;50.928;6.376;2023-01-10T08:46:58;4.80;99.90
16477;DHT22;8349;50.928;6.376;2023-01-10T08:49:25;4.80;99.90
16477;DHT22;8349;50.928;6.376;2023-01-10T08:51:53;4.90;99.90
16477;DHT22;8349;50.928;6.376;2023-01-10T08:54:20;5.00;99.90
16477;DHT22;8349;50.928;6.376;2023-01-10T08:56:47;5.00;99.90
16477;DHT22;8349;50.928;6.376;2023-01-10T08:59:13;5.10;99.90
16477;DHT22;8349;50.928;6.376;2023-01-10T09:01:41;5.10;99.90
16477;DHT22;8349;50.928;6.376;2023-01-10T09:04:08;5.20;99.90
16477;DHT22;8349;50.928;6.376;2023-01-10T09:06:35;5.30;99.90
16477;DHT22;8349;50.928;6.376;2023-01-10T09:09:03;5.40;99.90
16477;DHT22;8349;50.928;6.376;2023-01-10T09:11:30;5.50;99.90
16477;DHT22;8349;50.928;6.376;2023-01-10T09:13:57;5.60;99.90
16477;DHT22;8349;50.928;6.376;2023-01-10T09:16:24;5.70;99.90
16477;DHT22;8349;50.928;6.376;2023-01-10T09:18:50;5.80;99.90
16477;DHT22;8349;50.928;6.376;2023-01-10T09:21:17;5.90;99.90
16477;DHT22;8349;50.928;6.376;2023-01-10T09:23:44;6.00;99.90
16477;DHT22;8349;50.928;6.376;2023-01-10T09:26:12;6.10;99.90
16477;DHT22;8349;50.928;6.376;2023-01-10T09:28:39;6.10;99.90
16477;DHT22;8349;50.928;6.376;2023-01-10T09:31:06;6.20;99.90
16477;DHT22;8349;50.928;6.376;2023-01-10T09:33:33;6.30;99.90
16477;DHT22;8349;50.928;6.376;2023-01-10T09:36:00;6.40;99.90
16477;DHT22;8349;50.928;6.376;2023-01-10T09:38:27;6.40;99.90
16477;DHT22;8349;50.928;6.376;2023-01-10T09:40:57;6.40;99.90
16477;DHT22;8349;50.928;6.376;2023-01-10T09:43:31;6.60;99.90
16477;DHT22;8349;50.928;6.376;2023-01-10T09:46:03;6.60;99.90
16477;DHT22;8349;50.928;6.376;2023-01-10T09:48:33;6.70;99.90
16477;DHT22;8349;50.928;6.376;2023-01-10T09:53:44;6.80;99.90
16477;DHT22;8349;50.928;6.376;2023-01-10T09:56:12;7.00;99.90
16477;DHT22;8349;50.928;6.376;2023-01-10T09:58:40;7.20;99.90
16477;DHT22;8349;50.928;6.376;2023-01-10T10:01:08;7.30;99.90
16477;DHT22;8349;50.928;6.376;2023-01-10T10:03:38;7.50;99.90
16477;DHT22;8349;50.928;6.376;2023-01-10T10:06:06;7.60;99.90
16477;DHT22;8349;50.928;6.376;2023-01-10T10:08:34;7.70;99.90
16477;DHT22;8349;50.928;6.376;2023-01-10T10:11:06;8.00;99.90
16477;DHT22;8349;50.928;6.376;2023-01-10T10:13:41;8.10;99.90
16477;DHT22;8349;50.928;6.376;2023-01-10T10:16:13;8.10;99.90
16477;DHT22;8349;50.928;6.376;2023-01-10T10:18:43;8.00;99.90
16477;DHT22;8349;50.928;6.376;2023-01-10T10:21:15;7.70;99.90
16477;DHT22;8349;50.928;6.376;2023-01-10T10:26:27;8.00;99.90
16477;DHT22;8349;50.928;6.376;2023-01-10T10:29:03;8.30;99.90
16477;DHT22;8349;50.928;6.376;2023-01-10T10:31:36;8.50;99.90
16477;DHT22;8349;50.928;6.376;2023-01-10T10:34:06;8.70;99.90
16477;DHT22;8349;50.928;6.376;2023-01-10T10:36:37;9.50;99.90
16477;DHT22;8349;50.928;6.376;2023-01-10T10:39:04;10.20;99.90
16477;DHT22;8349;50.928;6.376;2023-01-10T10:41:33;10.60;99.90
16477;DHT22;8349;50.928;6.376;2023-01-10T10:44:05;10.90;99.90
16477;DHT22;8349;50.928;6.376;2023-01-10T10:46:36;11.40;99.90
16477;DHT22;8349;50.928;6.376;2023-01-10T10:49:03;11.70;99.90
16477;DHT22;8349;50.928;6.376;2023-01-10T10:51:38;10.80;99.90
16477;DHT22;8349;50.928;6.376;2023-01-10T10:54:07;10.70;99.90
16477;DHT22;8349;50.928;6.376;2023-01-10T10:56:36;10.40;99.90
16477;DHT22;8349;50.928;6.376;2023-01-10T10:59:04;10.00;99.90
16477;DHT22;8349;50.928;6.376;2023-01-10T11:01:31;9.50;99.90
16477;DHT22;8349;50.928;6.376;2023-01-10T11:03:59;9.60;99.90
16477;DHT22;8349;50.928;6.376;2023-01-10T11:06:27;9.50;99.90
16477;DHT22;8349;50.928;6.376;2023-01-10T11:08:56;9.30;99.90
16477;DHT22;8349;50.928;6.376;2023-01-10T11:11:24;9.10;99.90
16477;DHT22;8349;50.928;6.376;2023-01-10T11:13:53;9.20;99.90
16477;DHT22;8349;50.928;6.376;2023-01-10T11:16:25;9.40;99.90
16477;DHT22;8349;50.928;6.376;2023-01-10T11:19:08;9.40;99.90
16477;DHT22;8349;50.928;6.376;2023-01-10T11:21:35;9.60;99.90
16477;DHT22;8349;50.928;6.376;2023-01-10T11:24:04;9.60;99.90
16477;DHT22;8349;50.928;6.376;2023-01-10T11:26:34;9.70;99.90
16477;DHT22;8349;50.928;6.376;2023-01-10T11:29:03;9.50;99.90
16477;DHT22;8349;50.928;6.376;2023-01-10T11:31:32;9.80;99.90
16477;DHT22;8349;50.928;6.376;2023-01-10T11:34:00;9.80;99.90
16477;DHT22;8349;50.928;6.376;2023-01-10T11:36:28;9.50;99.90
16477;DHT22;8349;50.928;6.376;2023-01-10T11:39:02;9.40;99.90
16477;DHT22;8349;50.928;6.376;2023-01-10T11:41:30;9.80;99.90
16477;DHT22;8349;50.928;6.376;2023-01-10T11:44:14;10.00;99.90
16477;DHT22;8349;50.928;6.376;2023-01-10T11:46:43;10.50;99.90
16477;DHT22;8349;50.928;6.376;2023-01-10T11:49:12;10.70;99.90
16477;DHT22;8349;50.928;6.376;2023-01-10T11:51:44;10.50;99.90
16477;DHT22;8349;50.928;6.376;2023-01-10T11:54:14;10.10;99.90
16477;DHT22;8349;50.928;6.376;2023-01-10T11:56:53;10.10;99.90
16477;DHT22;8349;50.928;6.376;2023-01-10T11:59:20;10.40;99.90
16477;DHT22;8349;50.928;6.376;2023-01-10T12:01:52;10.50;99.90
16477;DHT22;8349;50.928;6.376;2023-01-10T12:04:20;10.50;99.90
16477;DHT22;8349;50.928;6.376;2023-01-10T12:06:48;10.50;99.90
16477;DHT22;8349;50.928;6.376;2023-01-10T12:09:30;10.60;99.90
16477;DHT22;8349;50.928;6.376;2023-01-10T12:12:00;10.30;99.90
16477;DHT22;8349;50.928;6.376;2023-01-10T12:14:27;10.20;99.90
16477;DHT22;8349;50.928;6.376;2023-01-10T12:16:58;10.20;99.90
16477;DHT22;8349;50.928;6.376;2023-01-10T12:19:26;10.10;99.90
16477;DHT22;8349;50.928;6.376;2023-01-10T12:21:53;9.60;99.90
16477;DHT22;8349;50.928;6.376;2023-01-10T12:24:21;9.70;99.90
16477;DHT22;8349;50.928;6.376;2023-01-10T12:26:49;9.60;99.90
16477;DHT22;8349;50.928;6.376;2023-01-10T12:29:19;9.50;99.90
16477;DHT22;8349;50.928;6.376;2023-01-10T12:31:47;9.40;99.90
16477;DHT22;8349;50.928;6.376;2023-01-10T12:34:16;9.20;99.90
16477;DHT22;8349;50.928;6.376;2023-01-10T12:36:49;9.10;99.90
16477;DHT22;8349;50.928;6.376;2023-01-10T12:39:20;8.90;99.90
16477;DHT22;8349;50.928;6.376;2023-01-10T12:41:50;8.90;99.90
16477;DHT22;8349;50.928;6.376;2023-01-10T12:44:36;8.90;99.90
16477;DHT22;8349;50.928;6.376;2023-01-10T12:47:08;8.70;99.90
16477;DHT22;8349;50.928;6.376;2023-01-10T12:49:40;8.70;99.90
16477;DHT22;8349;50.928;6.376;2023-01-10T12:52:09;8.70;99.90
16477;DHT22;8349;50.928;6.376;2023-01-10T12:54:38;8.70;99.90
16477;DHT22;8349;50.928;6.376;2023-01-10T12:57:05;8.60;99.90
16477;DHT22;8349;50.928;6.376;2023-01-10T12:59:38;8.70;99.90
16477;DHT22;8349;50.928;6.376;2023-01-10T13:02:06;8.80;99.90
16477;DHT22;8349;50.928;6.376;2023-01-10T13:04:36;8.80;99.90
16477;DHT22;8349;50.928;6.376;2023-01-10T13:07:08;8.70;99.90
16477;DHT22;8349;50.928;6.376;2023-01-10T13:09:36;8.70;99.90
16477;DHT22;8349;50.928;6.376;2023-01-10T13:12:05;8.70;99.90
16477;DHT22;8349;50.928;6.376;2023-01-10T13:14:33;8.60;99.90
16477;DHT22;8349;50.928;6.376;2023-01-10T13:17:03;8.60;99.90
16477;DHT22;8349;50.928;6.376;2023-01-10T13:19:34;8.60;99.90
16477;DHT22;8349;50.928;6.376;2023-01-10T13:22:16;8.50;99.90
16477;DHT22;8349;50.928;6.376;2023-01-10T13:24:52;8.40;99.90
16477;DHT22;8349;50.928;6.376;2023-01-10T13:27:20;8.50;99.90
16477;DHT22;8349;50.928;6.376;2023-01-10T13:29:46;8.50;99.90
16477;DHT22;8349;50.928;6.376;2023-01-10T13:32:17;8.50;99.90
16477;DHT22;8349;50.928;6.376;2023-01-10T13:34:45;8.50;99.90
16477;DHT22;8349;50.928;6.376;2023-01-10T13:37:18;8.50;99.90
16477;DHT22;8349;50.928;6.376;2023-01-10T13:39:49;8.40;99.90
16477;DHT22;8349;50.928;6.376;2023-01-10T13:42:25;8.40;99.90
16477;DHT22;8349;50.928;6.376;2023-01-10T13:45:13;8.30;99.90
16477;DHT22;8349;50.928;6.376;2023-01-10T13:47:57;8.30;99.90
16477;DHT22;8349;50.928;6.376;2023-01-10T13:55:58;8.20;99.90
16477;DHT22;8349;50.928;6.376;2023-01-10T13:58:38;8.20;99.90
16477;DHT22;8349;50.928;6.376;2023-01-10T14:01:21;8.10;99.90
16477;DHT22;8349;50.928;6.376;2023-01-10T14:04:06;8.10;99.90
16477;DHT22;8349;50.928;6.376;2023-01-10T14:06:34;8.10;99.90
16477;DHT22;8349;50.928;6.376;2023-01-10T14:09:26;8.10;99.90
16477;DHT22;8349;50.928;6.376;2023-01-10T14:11:55;8.10;99.90
16477;DHT22;8349;50.928;6.376;2023-01-10T14:14:23;8.10;99.90
16477;DHT22;8349;50.928;6.376;2023-01-10T14:16:52;8.10;99.90
16477;DHT22;8349;50.928;6.376;2023-01-10T14:19:22;8.00;99.90
16477;DHT22;8349;50.928;6.376;2023-01-10T14:21:50;8.00;99.90
16477;DHT22;8349;50.928;6.376;2023-01-10T14:24:21;8.00;99.90
16477;DHT22;8349;50.928;6.376;2023-01-10T14:26:49;8.00;99.90
16477;DHT22;8349;50.928;6.376;2023-01-10T14:29:18;8.00;99.90
16477;DHT22;8349;50.928;6.376;2023-01-10T14:31:46;8.00;99.90
16477;DHT22;8349;50.928;6.376;2023-01-10T14:34:15;7.90;99.90
16477;DHT22;8349;50.928;6.376;2023-01-10T14:36:47;8.00;99.90
16477;DHT22;8349;50.928;6.376;2023-01-10T14:39:15;8.00;99.90
16477;DHT22;8349;50.928;6.376;2023-01-10T14:41:43;8.00;99.90
16477;DHT22;8349;50.928;6.376;2023-01-10T14:44:12;8.00;99.90
16477;DHT22;8349;50.928;6.376;2023-01-10T14:46:44;8.10;99.90
16477;DHT22;8349;50.928;6.376;2023-01-10T14:49:19;8.10;99.90
16477;DHT22;8349;50.928;6.376;2023-01-10T14:51:46;8.00;99.90
16477;DHT22;8349;50.928;6.376;2023-01-10T14:54:15;8.00;99.90
16477;DHT22;8349;50.928;6.376;2023-01-10T14:56:43;8.00;99.90
16477;DHT22;8349;50.928;6.376;2023-01-10T14:59:23;7.90;99.90
16477;DHT22;8349;50.928;6.376;2023-01-10T15:01:53;7.90;99.90
16477;DHT22;8349;50.928;6.376;2023-01-10T15:04:22;7.80;99.90
16477;DHT22;8349;50.928;6.376;2023-01-10T15:06:50;7.70;99.90
16477;DHT22;8349;50.928;6.376;2023-01-10T15:09:17;7.70;99.90
16477;DHT22;8349;50.928;6.376;2023-01-10T15:11:44;7.60;99.90
16477;DHT22;8349;50.928;6.376;2023-01-10T15:14:11;7.60;99.90
16477;DHT22;8349;50.928;6.376;2023-01-10T15:16:42;7.60;99.90
16477;DHT22;8349;50.928;6.376;2023-01-10T15:19:11;7.50;99.90
16477;DHT22;8349;50.928;6.376;2023-01-10T15:21:41;7.40;99.90
16477;DHT22;8349;50.928;6.376;2023-01-10T15:24:22;7.40;99.90
16477;DHT22;8349;50.928;6.376;2023-01-10T15:26:50;7.30;99.90
16477;DHT22;8349;50.928;6.376;2023-01-10T15:29:19;7.20;99.90
16477;DHT22;8349;50.928;6.376;2023-01-10T15:31:46;7.30;99.90
16477;DHT22;8349;50.928;6.376;2023-01-10T15:34:16;7.20;99.90
16477;DHT22;8349;50.928;6.376;2023-01-10T15:36:44;7.20;99.90
16477;DHT22;8349;50.928;6.376;2023-01-10T15:39:14;7.20;99.90
16477;DHT22;8349;50.928;6.376;2023-01-10T15:41:44;7.20;99.90
16477;DHT22;8349;50.928;6.376;2023-01-10T15:44:20;7.10;99.90
16477;DHT22;8349;50.928;6.376;2023-01-10T15:46:53;7.10;99.90
16477;DHT22;8349;50.928;6.376;2023-01-10T15:49:22;7.10;99.90
16477;DHT22;8349;50.928;6.376;2023-01-10T15:51:50;7.10;99.90
16477;DHT22;8349;50.928;6.376;2023-01-10T15:54:27;7.10;99.90
16477;DHT22;8349;50.928;6.376;2023-01-10T15:56:55;7.00;99.90
16477;DHT22;8349;50.928;6.376;2023-01-10T15:59:25;7.00;99.90
16477;DHT22;8349;50.928;6.376;2023-01-10T16:01:52;7.00;99.90
16477;DHT22;8349;50.928;6.376;2023-01-10T16:04:19;6.90;99.90
16477;DHT22;8349;50.928;6.376;2023-01-10T16:06:47;6.90;99.90
16477;DHT22;8349;50.928;6.376;2023-01-10T16:09:16;6.90;99.90
16477;DHT22;8349;50.928;6.376;2023-01-10T16:11:45;6.90;99.90
16477;DHT22;8349;50.928;6.376;2023-01-10T16:14:30;6.90;99.90
16477;DHT22;8349;50.928;6.376;2023-01-10T16:16:57;6.90;99.90
16477;DHT22;8349;50.928;6.376;2023-01-10T16:19:24;6.90;99.90
16477;DHT22;8349;50.928;6.376;2023-01-10T16:21:53;6.90;99.90
16477;DHT22;8349;50.928;6.376;2023-01-10T16:24:24;6.90;99.90
16477;DHT22;8349;50.928;6.376;2023-01-10T16:26:52;6.90;99.90
16477;DHT22;8349;50.928;6.376;2023-01-10T16:29:19;6.90;99.90
16477;DHT22;8349;50.928;6.376;2023-01-10T16:31:47;6.90;99.90
16477;DHT22;8349;50.928;6.376;2023-01-10T16:34:14;6.80;99.90
16477;DHT22;8349;50.928;6.376;2023-01-10T16:36:41;6.90;99.90
16477;DHT22;8349;50.928;6.376;2023-01-10T16:39:11;6.90;99.90
16477;DHT22;8349;50.928;6.376;2023-01-10T16:41:40;6.90;99.90
16477;DHT22;8349;50.928;6.376;2023-01-10T16:44:25;7.00;99.90
16477;DHT22;8349;50.928;6.376;2023-01-10T16:46:51;7.00;99.90
16477;DHT22;8349;50.928;6.376;2023-01-10T16:49:18;7.00;99.90
16477;DHT22;8349;50.928;6.376;2023-01-10T16:51:45;6.90;99.90
16477;DHT22;8349;50.928;6.376;2023-01-10T16:54:14;6.80;99.90
16477;DHT22;8349;50.928;6.376;2023-01-10T16:56:42;6.80;99.90
16477;DHT22;8349;50.928;6.376;2023-01-10T16:59:09;6.90;99.90
16477;DHT22;8349;50.928;6.376;2023-01-10T17:01:37;6.90;99.90
16477;DHT22;8349;50.928;6.376;2023-01-10T17:04:04;6.90;99.90
16477;DHT22;8349;50.928;6.376;2023-01-10T17:06:32;6.90;99.90
16477;DHT22;8349;50.928;6.376;2023-01-10T17:08:58;7.00;99.90
16477;DHT22;8349;50.928;6.376;2023-01-10T17:11:27;7.00;99.90
16477;DHT22;8349;50.928;6.376;2023-01-10T17:13:55;6.90;99.90
16477;DHT22;8349;50.928;6.376;2023-01-10T17:16:23;7.00;99.90
16477;DHT22;8349;50.928;6.376;2023-01-10T17:18:50;7.00;99.90
16477;DHT22;8349;50.928;6.376;2023-01-10T17:21:18;7.00;99.90
16477;DHT22;8349;50.928;6.376;2023-01-10T17:23:45;7.00;99.90
16477;DHT22;8349;50.928;6.376;2023-01-10T17:26:12;7.00;99.90
16477;DHT22;8349;50.928;6.376;2023-01-10T17:28:41;7.10;99.90
16477;DHT22;8349;50.928;6.376;2023-01-10T17:31:09;7.10;99.90
16477;DHT22;8349;50.928;6.376;2023-01-10T17:33:36;7.10;99.90
16477;DHT22;8349;50.928;6.376;2023-01-10T17:36:03;7.10;99.90
16477;DHT22;8349;50.928;6.376;2023-01-10T17:38:30;7.20;99.90
16477;DHT22;8349;50.928;6.376;2023-01-10T17:40:57;7.30;99.90
16477;DHT22;8349;50.928;6.376;2023-01-10T17:43:26;7.30;99.90
16477;DHT22;8349;50.928;6.376;2023-01-10T17:45:54;7.50;99.90
16477;DHT22;8349;50.928;6.376;2023-01-10T17:48:23;7.50;99.90
16477;DHT22;8349;50.928;6.376;2023-01-10T17:50:54;7.60;99.90
16477;DHT22;8349;50.928;6.376;2023-01-10T17:53:21;7.70;99.90
16477;DHT22;8349;50.928;6.376;2023-01-10T17:55:48;7.80;99.90
16477;DHT22;8349;50.928;6.376;2023-01-10T17:58:15;7.80;99.90
16477;DHT22;8349;50.928;6.376;2023-01-10T18:00:42;7.90;99.90
16477;DHT22;8349;50.928;6.376;2023-01-10T18:03:11;7.90;99.90
16477;DHT22;8349;50.928;6.376;2023-01-10T18:05:38;8.10;99.90
16477;DHT22;8349;50.928;6.376;2023-01-10T18:08:05;8.10;99.90
16477;DHT22;8349;50.928;6.376;2023-01-10T18:10:32;8.10;99.90
16477;DHT22;8349;50.928;6.376;2023-01-10T18:12:59;8.20;99.90
16477;DHT22;8349;50.928;6.376;2023-01-10T18:15:26;8.20;99.90
16477;DHT22;8349;50.928;6.376;2023-01-10T18:17:52;8.20;99.90
16477;DHT22;8349;50.928;6.376;2023-01-10T18:20:21;8.20;99.90
16477;DHT22;8349;50.928;6.376;2023-01-10T18:22:47;8.30;99.90
16477;DHT22;8349;50.928;6.376;2023-01-10T18:25:32;8.30;99.90
16477;DHT22;8349;50.928;6.376;2023-01-10T18:27:58;8.40;99.90
16477;DHT22;8349;50.928;6.376;2023-01-10T18:30:25;8.40;99.90
16477;DHT22;8349;50.928;6.376;2023-01-10T18:32:52;8.50;99.90
16477;DHT22;8349;50.928;6.376;2023-01-10T18:35:21;8.50;99.90
16477;DHT22;8349;50.928;6.376;2023-01-10T18:37:47;8.60;99.90
16477;DHT22;8349;50.928;6.376;2023-01-10T18:40:14;8.50;99.90
16477;DHT22;8349;50.928;6.376;2023-01-10T18:42:41;8.50;99.90
16477;DHT22;8349;50.928;6.376;2023-01-10T18:45:08;8.50;99.90
16477;DHT22;8349;50.928;6.376;2023-01-10T18:47:35;8.50;99.90
16477;DHT22;8349;50.928;6.376;2023-01-10T18:50:02;8.50;99.90
16477;DHT22;8349;50.928;6.376;2023-01-10T18:52:30;8.50;99.90
16477;DHT22;8349;50.928;6.376;2023-01-10T18:54:57;8.50;99.90
16477;DHT22;8349;50.928;6.376;2023-01-10T18:57:24;8.50;99.90
16477;DHT22;8349;50.928;6.376;2023-01-10T18:59:52;8.50;99.90
16477;DHT22;8349;50.928;6.376;2023-01-10T19:02:19;8.60;99.90
16477;DHT22;8349;50.928;6.376;2023-01-10T19:04:46;8.50;99.90
16477;DHT22;8349;50.928;6.376;2023-01-10T19:07:12;8.50;99.90
16477;DHT22;8349;50.928;6.376;2023-01-10T19:09:41;8.50;99.90
16477;DHT22;8349;50.928;6.376;2023-01-10T19:12:07;8.50;99.90
16477;DHT22;8349;50.928;6.376;2023-01-10T19:14:34;8.50;99.90
16477;DHT22;8349;50.928;6.376;2023-01-10T19:17:01;8.40;99.90
16477;DHT22;8349;50.928;6.376;2023-01-10T19:19:28;8.50;99.90
16477;DHT22;8349;50.928;6.376;2023-01-10T19:21:54;8.50;99.90
16477;DHT22;8349;50.928;6.376;2023-01-10T19:24:22;8.50;99.90
16477;DHT22;8349;50.928;6.376;2023-01-10T19:26:51;8.50;99.90
16477;DHT22;8349;50.928;6.376;2023-01-10T19:29:17;8.50;99.90
16477;DHT22;8349;50.928;6.376;2023-01-10T19:31:44;8.50;99.90
16477;DHT22;8349;50.928;6.376;2023-01-10T19:34:12;8.50;99.90
16477;DHT22;8349;50.928;6.376;2023-01-10T19:36:39;8.50;99.90
16477;DHT22;8349;50.928;6.376;2023-01-10T19:39:06;8.50;99.90
16477;DHT22;8349;50.928;6.376;2023-01-10T19:41:33;8.50;99.90
16477;DHT22;8349;50.928;6.376;2023-01-10T19:44:03;8.50;99.90
16477;DHT22;8349;50.928;6.376;2023-01-10T19:46:30;8.60;99.90
16477;DHT22;8349;50.928;6.376;2023-01-10T19:48:58;8.60;99.90
16477;DHT22;8349;50.928;6.376;2023-01-10T19:51:27;8.70;99.90
16477;DHT22;8349;50.928;6.376;2023-01-10T19:53:54;8.70;99.90
16477;DHT22;8349;50.928;6.376;2023-01-10T19:56:21;8.70;99.90
16477;DHT22;8349;50.928;6.376;2023-01-10T19:58:47;8.70;99.90
16477;DHT22;8349;50.928;6.376;2023-01-10T20:01:16;8.70;99.90
16477;DHT22;8349;50.928;6.376;2023-01-10T20:03:44;8.90;99.90
16477;DHT22;8349;50.928;6.376;2023-01-10T20:06:12;8.90;99.90
16477;DHT22;8349;50.928;6.376;2023-01-10T20:08:41;8.90;99.90
16477;DHT22;8349;50.928;6.376;2023-01-10T20:11:08;8.90;99.90
16477;DHT22;8349;50.928;6.376;2023-01-10T20:13:35;8.90;99.90
16477;DHT22;8349;50.928;6.376;2023-01-10T20:16:03;8.90;99.90
16477;DHT22;8349;50.928;6.376;2023-01-10T20:18:31;9.00;99.90
16477;DHT22;8349;50.928;6.376;2023-01-10T20:21:00;8.90;99.90
16477;DHT22;8349;50.928;6.376;2023-01-10T20:23:29;9.00;99.90